createdAt,value
2024-04-11T00:00:55.201Z,5.22
2024-04-11T00:02:55.281Z,4.67
2024-04-11T00:04:55.226Z,4.83
2024-04-11T00:05:55.264Z,4.83
2024-04-11T00:07:55.222Z,4.94
2024-04-11T00:08:55.326Z,4.94
2024-04-11T00:09:55.211Z,4.94
2024-04-11T00:10:55.231Z,4.94
2024-04-11T00:12:55.220Z,5.22
2024-04-11T00:13:55.213Z,4.83
2024-04-11T00:14:57.687Z,4.67
2024-04-11T00:16:55.220Z,4.83
2024-04-11T00:18:55.272Z,4.5
2024-04-11T00:19:55.213Z,5.11
2024-04-11T00:20:55.254Z,5.11
2024-04-11T00:22:55.220Z,4.94
2024-04-11T00:23:55.284Z,5.11
2024-04-11T00:24:55.229Z,4.94
2024-04-11T00:26:55.266Z,4.94
2024-04-11T00:28:55.231Z,4.94
2024-04-11T00:29:55.271Z,4.94
2024-04-11T00:30:55.284Z,4.94
2024-04-11T00:31:55.220Z,4.5
2024-04-11T00:32:55.454Z,4.83
2024-04-11T00:33:55.363Z,4.83
2024-04-11T00:34:55.369Z,4.83
2024-04-11T00:36:55.225Z,4.5
2024-04-11T00:37:55.238Z,4.94
2024-04-11T00:38:55.282Z,4.67
2024-04-11T00:39:55.221Z,4.94
2024-04-11T00:40:55.245Z,4.94
2024-04-11T00:41:55.256Z,4.83
2024-04-11T00:43:55.239Z,4.39
2024-04-11T00:45:55.240Z,4.94
2024-04-11T00:46:55.254Z,4.67
2024-04-11T00:47:55.321Z,4.83
2024-04-11T00:48:55.364Z,4.83
2024-04-11T00:49:55.268Z,4.83
2024-04-11T00:50:55.350Z,4.94
2024-04-11T00:51:55.256Z,4.94
2024-04-11T00:52:55.229Z,4.67
2024-04-11T00:53:55.309Z,4.94
2024-04-11T00:54:55.252Z,4.83
2024-04-11T00:56:55.334Z,4.5
2024-04-11T00:57:55.264Z,4.67
2024-04-11T00:58:55.247Z,4.94
2024-04-11T01:00:55.334Z,4.83
2024-04-11T01:01:55.274Z,4.5
2024-04-11T01:02:55.320Z,4.94
2024-04-11T01:04:55.434Z,4.5
2024-04-11T01:05:55.422Z,4.94
2024-04-11T01:06:55.261Z,5.11
2024-04-11T01:07:55.282Z,4.94
2024-04-11T01:08:55.496Z,4.83
2024-04-11T01:09:55.272Z,4.94
2024-04-11T01:10:55.308Z,4.83
2024-04-11T01:11:55.338Z,5.11
2024-04-11T01:12:55.258Z,4.83
2024-04-11T01:13:55.286Z,4.94
2024-04-11T01:15:55.270Z,4.5
2024-04-11T01:16:55.271Z,4.67
2024-04-11T01:17:55.599Z,4.67
2024-04-11T01:18:55.411Z,4.5
2024-04-11T01:19:55.261Z,4.39
2024-04-11T01:20:55.284Z,4.83
2024-04-11T01:21:55.261Z,4.67
2024-04-11T01:22:55.266Z,4.83
2024-04-11T01:23:55.395Z,4.94
2024-04-11T01:24:55.265Z,4.5
2024-04-11T01:26:55.284Z,4.94
2024-04-11T01:27:55.287Z,4.83
2024-04-11T01:28:55.277Z,4.67
2024-04-11T01:29:55.390Z,4.94
2024-04-11T01:30:55.280Z,4.83
2024-04-11T01:31:55.273Z,4.94
2024-04-11T01:32:55.315Z,5.11
2024-04-11T01:33:55.463Z,4.67
2024-04-11T01:34:55.370Z,4.83
2024-04-11T01:35:55.290Z,4.94
2024-04-11T01:37:55.268Z,4.83
2024-04-11T01:38:55.361Z,4.94
2024-04-11T01:40:55.283Z,4.83
2024-04-11T01:41:55.355Z,4.94
2024-04-11T01:42:55.284Z,4.83
2024-04-11T01:43:55.266Z,4.67
2024-04-11T01:44:55.327Z,4.83
2024-04-11T01:45:55.311Z,4.94
2024-04-11T01:46:55.280Z,4.94
2024-04-11T01:47:55.421Z,4.94
2024-04-11T01:49:55.271Z,5.11
2024-04-11T01:50:55.335Z,4.83
2024-04-11T01:51:55.288Z,4.83
2024-04-11T01:53:55.466Z,4.94
2024-04-11T01:54:55.299Z,4.5
2024-04-11T01:56:55.434Z,4.67
2024-04-11T01:57:55.290Z,4.83
2024-04-11T01:58:55.318Z,4.83
2024-04-11T02:00:55.352Z,4.94
2024-04-11T02:02:55.345Z,4.5
2024-04-11T02:03:55.520Z,4.94
2024-04-11T02:04:55.417Z,4.83
2024-04-11T02:06:55.288Z,5.11
2024-04-11T02:07:55.300Z,4.94
2024-04-11T02:08:55.295Z,4.83
2024-04-11T02:09:55.285Z,5.11
2024-04-11T02:10:55.296Z,4.94
2024-04-11T02:11:55.388Z,5.11
2024-04-11T02:12:56.099Z,4.94
2024-04-11T02:14:55.322Z,4.83
2024-04-11T02:16:55.401Z,5.11
2024-04-11T02:17:55.387Z,4.83
2024-04-11T02:19:55.293Z,4.67
2024-04-11T02:20:55.359Z,4.94
2024-04-11T02:21:56.637Z,4.94
2024-04-11T02:22:55.292Z,4.94
2024-04-11T02:23:55.311Z,4.94
2024-04-11T02:25:55.294Z,4.83
2024-04-11T02:26:55.357Z,4.67
2024-04-11T02:28:55.309Z,4.39
2024-04-11T02:30:55.507Z,4.94
2024-04-11T02:31:55.299Z,5.11
2024-04-11T02:32:55.389Z,4.94
2024-04-11T02:33:55.510Z,4.94
2024-04-11T02:34:55.383Z,4.67
2024-04-11T02:35:55.318Z,4.83
2024-04-11T02:36:55.301Z,5.11
2024-04-11T02:37:55.292Z,5.11
2024-04-11T02:38:55.355Z,4.83
2024-04-11T02:41:55.344Z,4.94
2024-04-11T02:42:55.327Z,4.94
2024-04-11T02:43:55.301Z,4.39
2024-04-11T02:44:55.378Z,4.5
2024-04-11T02:46:55.361Z,4.83
2024-04-11T02:47:55.626Z,4.83
2024-04-11T02:48:55.444Z,4.83
2024-04-11T02:49:55.340Z,4.22
2024-04-11T02:51:55.303Z,4.67
2024-04-11T02:52:55.315Z,4.83
2024-04-11T02:53:55.539Z,5.11
2024-04-11T02:54:55.322Z,4.67
2024-04-11T02:55:55.302Z,4.83
2024-04-11T02:56:55.427Z,4.83
2024-04-11T02:57:55.296Z,4.67
2024-04-11T02:58:55.343Z,4.83
2024-04-11T02:59:55.363Z,4.22
2024-04-11T03:00:55.367Z,4.5
2024-04-11T03:01:55.317Z,4.94
2024-04-11T03:02:55.404Z,4.67
2024-04-11T03:03:55.528Z,4.83
2024-04-11T03:04:55.335Z,4.67
2024-04-11T03:06:55.331Z,4.67
2024-04-11T03:07:55.329Z,4.94
2024-04-11T03:08:55.395Z,5.11
2024-04-11T03:10:55.332Z,4.67
2024-04-11T03:11:55.408Z,4.67
2024-04-11T03:12:55.313Z,4.94
2024-04-11T03:13:55.318Z,4.67
2024-04-11T03:14:55.399Z,4.67
2024-04-11T03:16:55.448Z,4.5
2024-04-11T03:17:55.425Z,4.11
2024-04-11T03:18:55.501Z,4.5
2024-04-11T03:19:55.319Z,4.67
2024-04-11T03:20:55.382Z,4.83
2024-04-11T03:21:55.327Z,4.67
2024-04-11T03:22:55.335Z,5.11
2024-04-11T03:23:55.367Z,4.83
2024-04-11T03:25:55.331Z,4.5
2024-04-11T03:26:55.363Z,4.67
2024-04-11T03:27:55.312Z,4.67
2024-04-11T03:28:55.334Z,4.94
2024-04-11T03:29:55.329Z,4.83
2024-04-11T03:30:55.330Z,4.5
2024-04-11T03:31:55.328Z,4.67
2024-04-11T03:32:55.434Z,4.39
2024-04-11T03:34:55.329Z,5.11
2024-04-11T03:35:55.384Z,4.83
2024-04-11T03:36:55.326Z,4.94
2024-04-11T03:37:55.344Z,4.94
2024-04-11T03:39:55.337Z,4.67
2024-04-11T03:40:56.532Z,4.67
2024-04-11T03:41:55.368Z,4.83
2024-04-11T03:42:55.333Z,4.94
2024-04-11T03:43:55.345Z,4.83
2024-04-11T03:45:55.325Z,4.67
2024-04-11T03:46:55.370Z,4.67
2024-04-11T03:49:55.339Z,4.83
2024-04-11T03:50:55.378Z,4.5
2024-04-11T03:51:55.345Z,4.94
2024-04-11T03:52:55.344Z,4.5
2024-04-11T03:54:55.340Z,4.67
2024-04-11T03:56:55.362Z,4.83
2024-04-11T03:58:55.360Z,4.67
2024-04-11T04:00:55.423Z,4.83
2024-04-11T04:01:55.363Z,4.5
2024-04-11T04:02:55.499Z,4.67
2024-04-11T04:03:55.502Z,4.94
2024-04-11T04:04:55.412Z,4.5
2024-04-11T04:05:55.380Z,4.83
2024-04-11T04:07:55.334Z,4.94
2024-04-11T04:08:55.364Z,4.83
2024-04-11T04:10:55.417Z,4.94
2024-04-11T04:11:55.442Z,4.67
2024-04-11T04:13:55.337Z,4.94
2024-04-11T04:14:55.479Z,4.83
2024-04-11T04:16:55.330Z,4.5
2024-04-11T04:17:55.440Z,4.94
2024-04-11T04:18:55.452Z,4.94
2024-04-11T04:19:55.350Z,4.67
2024-04-11T04:20:55.371Z,4.94
2024-04-11T04:21:55.328Z,4.5
2024-04-11T04:22:55.338Z,5.22
2024-04-11T04:23:55.440Z,4.94
2024-04-11T04:24:55.354Z,4.94
2024-04-11T04:26:55.398Z,4.83
2024-04-11T04:28:55.340Z,4.94
2024-04-11T04:29:55.362Z,4.83
2024-04-11T04:30:57.543Z,5.11
2024-04-11T04:31:55.341Z,4.67
2024-04-11T04:32:55.487Z,4.83
2024-04-11T04:33:55.548Z,4.94
2024-04-11T04:34:55.367Z,4.5
2024-04-11T04:36:55.342Z,4.5
2024-04-11T04:37:55.339Z,4.67
2024-04-11T04:38:55.376Z,4.83
2024-04-11T04:39:55.369Z,4.94
2024-04-11T04:41:55.503Z,4.83
2024-04-11T04:43:55.354Z,5.11
2024-04-11T04:44:55.390Z,4.5
2024-04-11T04:45:55.365Z,5.11
2024-04-11T04:46:55.391Z,4.83
2024-04-11T04:47:55.550Z,4.94
2024-04-11T04:48:55.575Z,4.94
2024-04-11T04:49:55.374Z,5.11
2024-04-11T04:51:55.375Z,4.67
2024-04-11T04:52:55.355Z,4.94
2024-04-11T04:53:55.414Z,4.94
2024-04-11T04:54:55.355Z,4.83
2024-04-11T04:55:55.404Z,4.94
2024-04-11T04:56:55.412Z,4.83
2024-04-11T04:57:55.361Z,4.94
2024-04-11T04:58:55.357Z,4.83
2024-04-11T04:59:55.395Z,4.94
2024-04-11T05:00:55.410Z,4.83
2024-04-11T05:01:55.355Z,4.94
2024-04-11T05:02:55.409Z,5.11
2024-04-11T05:03:55.524Z,4.94
2024-04-11T05:04:55.464Z,4.94
2024-04-11T05:05:55.373Z,4.67
2024-04-11T05:06:55.391Z,4.83
2024-04-11T05:07:55.359Z,5.11
2024-04-11T05:08:55.756Z,4.39
2024-04-11T05:09:55.361Z,5.11
2024-04-11T05:10:55.536Z,4.67
2024-04-11T05:11:55.454Z,5.22
2024-04-11T05:13:55.377Z,4.5
2024-04-11T05:14:55.408Z,4.5
2024-04-11T05:15:55.410Z,4.94
2024-04-11T05:17:55.433Z,5.11
2024-04-11T05:18:55.681Z,5.22
2024-04-11T05:19:55.392Z,4.94
2024-04-11T05:21:55.362Z,5.22
2024-04-11T05:22:55.507Z,5.39
2024-04-11T05:23:55.761Z,5.11
2024-04-11T05:24:55.376Z,4.83
2024-04-11T05:26:55.530Z,4.94
2024-04-11T05:27:55.370Z,5.11
2024-04-11T05:28:55.985Z,5.22
2024-04-11T05:29:55.388Z,5.56
2024-04-11T05:30:55.387Z,5.11
2024-04-11T05:32:55.546Z,5.11
2024-04-11T05:33:55.582Z,4.94
2024-04-11T05:34:55.692Z,5.56
2024-04-11T05:36:55.389Z,5.67
2024-04-11T05:37:55.391Z,5.22
2024-04-11T05:38:55.525Z,5.67
2024-04-11T05:39:55.379Z,5.78
2024-04-11T05:40:55.455Z,5.67
2024-04-11T05:42:55.387Z,5.39
2024-04-11T05:44:55.488Z,5.67
2024-04-11T05:45:55.381Z,5.56
2024-04-11T05:47:55.479Z,5.78
2024-04-11T05:48:55.447Z,5.78
2024-04-11T05:50:55.413Z,5.39
2024-04-11T05:51:55.387Z,5.67
2024-04-11T05:52:55.380Z,5.78
2024-04-11T05:53:55.445Z,5.56
2024-04-11T05:54:55.393Z,5.67
2024-04-11T05:55:55.383Z,5.56
2024-04-11T05:56:55.410Z,5.39
2024-04-11T05:57:55.385Z,5.67
2024-04-11T05:58:55.426Z,5.39
2024-04-11T05:59:55.469Z,5.67
2024-04-11T06:01:55.559Z,5.78
2024-04-11T06:02:55.402Z,5.56
2024-04-11T06:03:55.453Z,5.78
2024-04-11T06:04:55.394Z,5.94
2024-04-11T06:06:55.396Z,6.06
2024-04-11T06:07:55.440Z,5.56
2024-04-11T06:09:55.398Z,5.67
2024-04-11T06:10:55.497Z,5.78
2024-04-11T06:11:55.489Z,5.94
2024-04-11T06:12:55.404Z,6.22
2024-04-11T06:14:55.419Z,5.67
2024-04-11T06:15:55.419Z,5.78
2024-04-11T06:16:55.394Z,6.06
2024-04-11T06:17:55.442Z,5.94
2024-04-11T06:18:55.505Z,5.78
2024-04-11T06:20:55.891Z,6.06
2024-04-11T06:22:55.403Z,5.94
2024-04-11T06:23:55.413Z,5.94
2024-04-11T06:24:55.410Z,5.67
2024-04-11T06:25:55.405Z,6.06
2024-04-11T06:26:55.455Z,5.94
2024-04-11T06:27:55.393Z,5.94
2024-04-11T06:28:55.398Z,6.39
2024-04-11T06:30:55.388Z,6.5
2024-04-11T06:31:55.398Z,6.06
2024-04-11T06:32:55.636Z,5.78
2024-04-11T06:33:55.492Z,5.94
2024-04-11T06:34:55.588Z,6.67
2024-04-11T06:35:55.431Z,6.22
2024-04-11T06:36:55.445Z,6.39
2024-04-11T06:37:55.392Z,6.22
2024-04-11T06:38:55.522Z,6.22
2024-04-11T06:39:55.399Z,6.22
2024-04-11T06:40:55.402Z,6.67
2024-04-11T06:41:55.436Z,5.94
2024-04-11T06:42:55.429Z,6.06
2024-04-11T06:44:00.517Z,6.22
2024-04-11T06:44:55.448Z,6.67
2024-04-11T06:45:55.416Z,6.5
2024-04-11T06:46:55.397Z,6.67
2024-04-11T06:47:55.566Z,6.67
2024-04-11T06:49:55.400Z,6.78
2024-04-11T06:50:55.503Z,6.67
2024-04-11T06:52:55.407Z,6.5
2024-04-11T06:53:55.482Z,6.5
2024-04-11T06:54:55.432Z,6.5
2024-04-11T06:55:55.400Z,6.94
2024-04-11T06:56:55.471Z,6.94
2024-04-11T06:57:55.413Z,6.94
2024-04-11T06:58:55.426Z,7.11
2024-04-11T07:01:55.411Z,7.11
2024-04-11T07:03:55.427Z,7.11
2024-04-11T07:04:55.424Z,6.94
2024-04-11T07:05:55.518Z,7.11
2024-04-11T07:06:55.435Z,6.94
2024-04-11T07:07:55.441Z,7.11
2024-04-11T07:08:55.463Z,6.94
2024-04-11T07:09:55.408Z,7.22
2024-04-11T07:10:55.410Z,7.5
2024-04-11T07:11:55.432Z,7.67
2024-04-11T07:12:55.408Z,7.5
2024-04-11T07:13:55.528Z,7.67
2024-04-11T07:14:55.462Z,7.22
2024-04-11T07:16:55.446Z,7.78
2024-04-11T07:17:55.431Z,8.11
2024-04-11T07:18:55.404Z,8.11
2024-04-11T07:20:55.443Z,8.11
2024-04-11T07:21:55.418Z,8.28
2024-04-11T07:23:55.660Z,8.39
2024-04-11T07:25:55.412Z,8.39
2024-04-11T07:26:55.504Z,8.39
2024-04-11T07:27:55.410Z,8.39
2024-04-11T07:28:55.422Z,8.61
2024-04-11T07:29:55.451Z,8.39
2024-04-11T07:30:55.432Z,8.61
2024-04-11T07:31:55.417Z,8.39
2024-04-11T07:32:55.603Z,8.28
2024-04-11T07:33:55.521Z,8.39
2024-04-11T07:34:55.425Z,8.61
2024-04-11T07:35:55.443Z,8.5
2024-04-11T07:37:55.424Z,8.61
2024-04-11T07:39:55.430Z,8.5
2024-04-11T07:41:55.535Z,8.94
2024-04-11T07:43:55.477Z,8.78
2024-04-11T07:44:55.447Z,8.78
2024-04-11T07:45:55.423Z,8.61
2024-04-11T07:47:00.958Z,8.94
2024-04-11T07:48:55.502Z,9.39
2024-04-11T07:49:55.504Z,8.61
2024-04-11T07:50:55.547Z,9.22
2024-04-11T07:51:55.427Z,9.06
2024-04-11T07:52:55.434Z,8.78
2024-04-11T07:53:55.510Z,9.22
2024-04-11T07:54:55.425Z,9.06
2024-04-11T07:55:55.463Z,8.78
2024-04-11T07:56:55.548Z,8.78
2024-04-11T07:57:55.423Z,8.94
2024-04-11T07:58:55.438Z,9.22
2024-04-11T07:59:55.574Z,9.22
2024-04-11T08:01:55.461Z,8.5
2024-04-11T08:02:55.553Z,8.94
2024-04-11T08:03:55.443Z,8.78
2024-04-11T08:05:55.469Z,9.5
2024-04-11T08:07:55.484Z,9.5
2024-04-11T08:09:55.431Z,9.39
2024-04-11T08:10:55.440Z,8.94
2024-04-11T08:11:55.463Z,9.22
2024-04-11T08:12:55.430Z,8.5
2024-04-11T08:13:55.441Z,8.5
2024-04-11T08:15:55.445Z,8.94
2024-04-11T08:16:55.451Z,8.94
2024-04-11T08:17:55.511Z,9.22
2024-04-11T08:18:55.477Z,9.67
2024-04-11T08:19:57.669Z,9.39
2024-04-11T08:20:55.429Z,9.06
2024-04-11T08:21:55.424Z,9.22
2024-04-11T08:22:55.432Z,8.94
2024-04-11T08:23:55.487Z,9.94
2024-04-11T08:24:55.665Z,9.94
2024-04-11T08:26:55.494Z,9.22
2024-04-11T08:27:55.467Z,9.39
2024-04-11T08:29:55.540Z,9.5
2024-04-11T08:30:55.424Z,9.94
2024-04-11T08:31:55.443Z,9.39
2024-04-11T08:33:55.475Z,9.22
2024-04-11T08:34:55.562Z,9.22
2024-04-11T08:35:55.534Z,8.78
2024-04-11T08:36:55.436Z,9.39
2024-04-11T08:37:55.455Z,9.39
2024-04-11T08:39:55.482Z,9.5
2024-04-11T08:41:55.543Z,9.78
2024-04-11T08:42:55.443Z,9.5
2024-04-11T08:43:55.434Z,9.22
2024-04-11T08:44:55.479Z,9.67
2024-04-11T08:45:55.433Z,9.5
2024-04-11T08:46:55.504Z,9.78
2024-04-11T08:47:55.503Z,10.22
2024-04-11T08:49:55.515Z,10.11
2024-04-11T08:50:55.688Z,9.94
2024-04-11T08:52:55.449Z,9.22
2024-04-11T08:54:00.382Z,8.78
2024-04-11T08:54:55.446Z,8.78
2024-04-11T08:56:55.476Z,9.5
2024-04-11T08:57:55.470Z,9.5
2024-04-11T08:59:55.488Z,9.67
2024-04-11T09:00:55.468Z,10.11
2024-04-11T09:01:55.453Z,10.39
2024-04-11T09:02:55.566Z,10.39
2024-04-11T09:03:55.695Z,10.22
2024-04-11T09:05:00.167Z,11.11
2024-04-11T09:06:55.464Z,11
2024-04-11T09:07:55.439Z,11.28
2024-04-11T09:08:55.543Z,11.28
2024-04-11T09:10:55.502Z,10.83
2024-04-11T09:11:55.517Z,10.56
2024-04-11T09:12:55.443Z,10.67
2024-04-11T09:13:55.438Z,11.11
2024-04-11T09:14:55.643Z,10.83
2024-04-11T09:15:55.501Z,10.56
2024-04-11T09:17:55.532Z,11.94
2024-04-11T09:18:55.444Z,11.83
2024-04-11T09:19:55.464Z,11.72
2024-04-11T09:21:55.452Z,12.28
2024-04-11T09:22:56.678Z,11.83
2024-04-11T09:24:55.471Z,12.11
2024-04-11T09:26:55.517Z,12.44
2024-04-11T09:27:55.441Z,12.44
2024-04-11T09:28:55.470Z,11.83
2024-04-11T09:30:55.464Z,10.11
2024-04-11T09:32:55.505Z,9.94
2024-04-11T09:33:55.848Z,10.11
2024-04-11T09:35:55.788Z,10.22
2024-04-11T09:37:55.451Z,10.11
2024-04-11T09:38:55.648Z,10.61
2024-04-11T09:39:55.479Z,10.44
2024-04-11T09:40:55.447Z,10.61
2024-04-11T09:41:55.534Z,10.44
2024-04-11T09:43:55.463Z,10.61
2024-04-11T09:44:56.060Z,10.61
2024-04-11T09:45:55.494Z,11.56
2024-04-11T09:46:55.513Z,11.44
2024-04-11T09:48:55.575Z,10.17
2024-04-11T09:50:55.571Z,9.89
2024-04-11T09:51:55.463Z,10.89
2024-04-11T09:53:55.536Z,11.5
2024-04-11T09:54:55.479Z,11.17
2024-04-11T09:55:55.465Z,11.5
2024-04-11T09:56:55.484Z,10.17
2024-04-11T09:57:55.463Z,10.89
2024-04-11T09:59:55.497Z,11.89
2024-04-11T10:01:55.453Z,11.78
2024-04-11T10:02:55.594Z,11.17
2024-04-11T10:03:55.490Z,10.61
2024-04-11T10:04:55.454Z,11.5
2024-04-11T10:05:55.516Z,11.33
2024-04-11T10:07:55.458Z,11.5
2024-04-11T10:08:55.519Z,12
2024-04-11T10:09:55.469Z,11.89
2024-04-11T10:10:55.472Z,12.17
2024-04-11T10:12:55.489Z,11.33
2024-04-11T10:13:55.469Z,11.89
2024-04-11T10:14:55.578Z,12
2024-04-11T10:16:55.473Z,11.17
2024-04-11T10:17:55.539Z,11.78
2024-04-11T10:18:56.092Z,12.5
2024-04-11T10:19:55.624Z,13.56
2024-04-11T10:21:55.472Z,11.89
2024-04-11T10:23:57.402Z,12
2024-04-11T10:24:55.476Z,12.17
2024-04-11T10:25:55.472Z,11.89
2024-04-11T10:26:55.515Z,12
2024-04-11T10:28:55.492Z,12.17
2024-04-11T10:30:55.475Z,11.17
2024-04-11T10:31:55.469Z,10.44
2024-04-11T10:32:55.574Z,10.44
2024-04-11T10:34:55.473Z,12.78
2024-04-11T10:36:55.468Z,12.5
2024-04-11T10:37:55.474Z,12.78
2024-04-11T10:38:55.514Z,13.11
2024-04-11T10:40:55.484Z,13.39
2024-04-11T10:41:57.331Z,12.94
2024-04-11T10:43:00.000Z,12.61
2024-04-11T10:43:55.462Z,12.94
2024-04-11T10:44:55.540Z,12.94
2024-04-11T10:46:55.482Z,12.33
2024-04-11T10:47:55.531Z,12.61
2024-04-11T10:49:55.486Z,12.61
2024-04-11T10:50:55.563Z,13.11
2024-04-11T10:51:55.463Z,12.17
2024-04-11T10:52:55.475Z,12
2024-04-11T10:53:55.514Z,11.78
2024-04-11T10:54:55.478Z,11.89
2024-04-11T10:55:55.502Z,12.5
2024-04-11T10:56:55.548Z,13.39
2024-04-11T10:57:55.468Z,13.56
2024-04-11T10:58:55.487Z,13.11
2024-04-11T10:59:55.510Z,13.11
2024-04-11T11:00:55.597Z,13.11
2024-04-11T11:01:58.923Z,13.67
2024-04-11T11:02:55.527Z,13.22
2024-04-11T11:03:55.496Z,13.39
2024-04-11T11:04:55.477Z,13.39
2024-04-11T11:05:55.530Z,12.94
2024-04-11T11:06:55.489Z,12
2024-04-11T11:07:55.511Z,12
2024-04-11T11:09:55.486Z,12.5
2024-04-11T11:11:55.543Z,11.61
2024-04-11T11:12:55.476Z,11.61
2024-04-11T11:13:55.479Z,12.33
2024-04-11T11:15:55.538Z,13.67
2024-04-11T11:16:55.476Z,13.39
2024-04-11T11:17:55.514Z,13.56
2024-04-11T11:18:55.489Z,13.39
2024-04-11T11:19:55.487Z,13.22
2024-04-11T11:20:55.569Z,14.11
2024-04-11T11:21:55.471Z,14
2024-04-11T11:22:55.478Z,13.67
2024-04-11T11:24:55.516Z,13.56
2024-04-11T11:25:55.470Z,14
2024-04-11T11:26:55.547Z,13.22
2024-04-11T11:27:55.542Z,13.22
2024-04-11T11:29:55.487Z,14
2024-04-11T11:30:55.515Z,14.28
2024-04-11T11:32:55.594Z,13.67
2024-04-11T11:33:55.682Z,13.83
2024-04-11T11:35:55.528Z,13.67
2024-04-11T11:36:55.483Z,13.67
2024-04-11T11:38:55.501Z,13.83
2024-04-11T11:39:55.502Z,14.11
2024-04-11T11:40:55.475Z,14.11
2024-04-11T11:41:55.495Z,14.28
2024-04-11T11:42:55.490Z,14
2024-04-11T11:44:55.562Z,14.44
2024-04-11T11:45:55.473Z,14.44
2024-04-11T11:46:55.532Z,14.44
2024-04-11T11:47:55.520Z,14.44
2024-04-11T11:48:55.505Z,15.06
2024-04-11T11:50:55.568Z,15.06
2024-04-11T11:51:55.479Z,14.78
2024-04-11T11:52:56.123Z,14.28
2024-04-11T11:53:55.520Z,14.89
2024-04-11T11:55:59.402Z,14.61
2024-04-11T11:56:55.518Z,15.06
2024-04-11T11:58:55.487Z,14.28
2024-04-11T12:00:55.508Z,15.06
2024-04-11T12:01:55.479Z,15.06
2024-04-11T12:02:55.618Z,15.61
2024-04-11T12:03:55.590Z,15.17
2024-04-11T12:04:55.499Z,13.22
2024-04-11T12:05:55.531Z,14
2024-04-11T12:06:55.518Z,13.56
2024-04-11T12:07:55.526Z,13.22
2024-04-11T12:09:55.483Z,12.33
2024-04-11T12:11:55.604Z,12.94
2024-04-11T12:12:56.623Z,13.67
2024-04-11T12:13:55.489Z,15.06
2024-04-11T12:14:55.539Z,15.28
2024-04-11T12:16:55.559Z,15.61
2024-04-11T12:18:55.520Z,15.28
2024-04-11T12:20:55.550Z,15.28
2024-04-11T12:22:55.507Z,14.11
2024-04-11T12:23:55.541Z,14.44
2024-04-11T12:25:55.495Z,14.89
2024-04-11T12:27:55.502Z,14.78
2024-04-11T12:28:55.510Z,14.61
2024-04-11T12:29:55.523Z,12.94
2024-04-11T12:31:00.253Z,13.5
2024-04-11T12:31:55.493Z,14.61
2024-04-11T12:32:55.582Z,15.61
2024-04-11T12:34:55.510Z,15.28
2024-04-11T12:35:55.535Z,15.78
2024-04-11T12:37:55.503Z,15.33
2024-04-11T12:38:55.602Z,15.67
2024-04-11T12:39:55.954Z,15.06
2024-04-11T12:41:55.522Z,14.5
2024-04-11T12:42:55.519Z,14.06
2024-04-11T12:44:55.557Z,13.89
2024-04-11T12:45:55.506Z,14.17
2024-04-11T12:47:55.562Z,14.33
2024-04-11T12:48:55.561Z,14.94
2024-04-11T12:49:55.497Z,15.22
2024-04-11T12:50:55.552Z,14.83
2024-04-11T12:51:55.499Z,15.22
2024-04-11T12:52:55.511Z,15.5
2024-04-11T12:53:55.560Z,14.94
2024-04-11T12:54:55.522Z,15.22
2024-04-11T12:55:55.519Z,15.83
2024-04-11T12:57:55.529Z,15.33
2024-04-11T12:58:55.562Z,14.33
2024-04-11T12:59:55.558Z,14.94
2024-04-11T13:00:55.541Z,15.22
2024-04-11T13:03:55.510Z,15.33
2024-04-11T13:04:55.580Z,16.28
2024-04-11T13:06:55.537Z,16.44
2024-04-11T13:08:55.530Z,16.44
2024-04-11T13:09:56.308Z,14.83
2024-04-11T13:10:55.565Z,14.61
2024-04-11T13:11:55.540Z,15.83
2024-04-11T13:13:55.509Z,15.33
2024-04-11T13:14:55.584Z,15.33
2024-04-11T13:16:55.604Z,14.61
2024-04-11T13:17:55.602Z,14.83
2024-04-11T13:18:55.535Z,15.33
2024-04-11T13:19:55.509Z,16.72
2024-04-11T13:20:55.557Z,16.56
2024-04-11T13:21:55.529Z,16.72
2024-04-11T13:22:55.549Z,16.28
2024-04-11T13:24:56.287Z,15.5
2024-04-11T13:26:55.596Z,15.11
2024-04-11T13:27:55.567Z,15.33
2024-04-11T13:28:55.557Z,15.5
2024-04-11T13:29:57.628Z,15.33
2024-04-11T13:30:55.543Z,15.67
2024-04-11T13:31:55.531Z,16.72
2024-04-11T13:32:55.584Z,16.44
2024-04-11T13:33:55.786Z,16.44
2024-04-11T13:35:55.562Z,15.22
2024-04-11T13:36:55.528Z,15.22
2024-04-11T13:37:55.535Z,16.44
2024-04-11T13:38:55.590Z,16.44
2024-04-11T13:40:55.536Z,16.72
2024-04-11T13:41:55.603Z,16.72
2024-04-11T13:43:55.559Z,16.28
2024-04-11T13:44:55.595Z,16.89
2024-04-11T13:46:55.648Z,16.44
2024-04-11T13:48:55.581Z,17.06
2024-04-11T13:50:55.740Z,17.39
2024-04-11T13:51:55.566Z,16.28
2024-04-11T13:52:55.544Z,15.67
2024-04-11T13:53:55.540Z,15.94
2024-04-11T13:54:55.589Z,16.72
2024-04-11T13:56:55.609Z,17.22
2024-04-11T13:57:55.558Z,17.67
2024-04-11T13:58:55.556Z,17.06
2024-04-11T13:59:55.565Z,17.39
2024-04-11T14:00:55.588Z,17.83
2024-04-11T14:02:55.606Z,16.89
2024-04-11T14:03:55.617Z,17.39
2024-04-11T14:04:55.590Z,16.44
2024-04-11T14:05:55.562Z,15.94
2024-04-11T14:06:55.554Z,15.94
2024-04-11T14:07:55.554Z,16.28
2024-04-11T14:09:55.562Z,16.72
2024-04-11T14:10:55.581Z,16.56
2024-04-11T14:12:55.549Z,17.22
2024-04-11T14:13:55.542Z,17.83
2024-04-11T14:15:55.570Z,17.06
2024-04-11T14:16:55.570Z,16.44
2024-04-11T14:17:57.729Z,16.44
2024-04-11T14:18:55.558Z,17.39
2024-04-11T14:19:55.544Z,17.06
2024-04-11T14:20:55.610Z,16.72
2024-04-11T14:22:55.581Z,16.56
2024-04-11T14:23:55.627Z,15.94
2024-04-11T14:24:55.573Z,16.11
2024-04-11T14:25:55.578Z,16.28
2024-04-11T14:26:55.612Z,15.94
2024-04-11T14:28:55.563Z,16.89
2024-04-11T14:30:55.964Z,15.67
2024-04-11T14:32:55.599Z,15.56
2024-04-11T14:34:55.585Z,16.11
2024-04-11T14:35:55.603Z,15.28
2024-04-11T14:36:55.563Z,15.39
2024-04-11T14:38:55.582Z,16.33
2024-04-11T14:39:55.555Z,17.06
2024-04-11T14:40:55.590Z,17.72
2024-04-11T14:42:55.691Z,18
2024-04-11T14:44:55.670Z,18.67
2024-04-11T14:45:55.564Z,17.67
2024-04-11T14:46:55.626Z,18.06
2024-04-11T14:47:55.634Z,17.39
2024-04-11T14:48:55.570Z,17.22
2024-04-11T14:49:55.561Z,17.83
2024-04-11T14:50:55.704Z,17
2024-04-11T14:51:55.563Z,16.61
2024-04-11T14:52:55.594Z,16.78
2024-04-11T14:53:55.579Z,17.56
2024-04-11T14:55:55.615Z,17.67
2024-04-11T14:56:55.580Z,18.22
2024-04-11T14:57:55.557Z,17.83
2024-04-11T14:58:55.581Z,18.5
2024-04-11T15:00:55.579Z,18.94
2024-04-11T15:02:55.626Z,19.44
2024-04-11T15:03:55.620Z,19.44
2024-04-11T15:04:55.606Z,20.39
2024-04-11T15:05:55.637Z,20.83
2024-04-11T15:06:55.596Z,21.39
2024-04-11T15:08:55.599Z,22.06
2024-04-11T15:09:55.590Z,20.39
2024-04-11T15:10:55.602Z,20.83
2024-04-11T15:11:55.729Z,21.89
2024-04-11T15:12:55.581Z,21.56
2024-04-11T15:13:55.602Z,20.72
2024-04-11T15:14:55.661Z,20.11
2024-04-11T15:16:55.592Z,20.72
2024-04-11T15:17:55.623Z,21.06
2024-04-11T15:19:55.588Z,20.72
2024-04-11T15:20:55.606Z,20.22
2024-04-11T15:21:55.666Z,19.94
2024-04-11T15:22:55.583Z,20.83
2024-04-11T15:23:55.633Z,20.72
2024-04-11T15:24:55.591Z,20.72
2024-04-11T15:26:56.161Z,21.39
2024-04-11T15:27:55.599Z,20.72
2024-04-11T15:29:55.662Z,20.11
2024-04-11T15:30:55.654Z,20.72
2024-04-11T15:32:55.622Z,21.22
2024-04-11T15:33:55.820Z,21.22
2024-04-11T15:34:55.595Z,21.56
2024-04-11T15:35:55.674Z,20.56
2024-04-11T15:36:55.614Z,20.11
2024-04-11T15:37:55.603Z,19.94
2024-04-11T15:38:55.635Z,19.44
2024-04-11T15:39:55.626Z,19.33
2024-04-11T15:40:55.591Z,18.67
2024-04-11T15:41:55.682Z,18.72
2024-04-11T15:42:55.593Z,19.44
2024-04-11T15:43:55.625Z,19.83
2024-04-11T15:45:55.600Z,19.94
2024-04-11T15:46:55.633Z,19.44
2024-04-11T15:47:55.705Z,19.33
2024-04-11T15:48:55.647Z,19.67
2024-04-11T15:49:55.613Z,18.94
2024-04-11T15:51:55.622Z,18.67
2024-04-11T15:53:57.209Z,18.94
2024-04-11T15:54:55.603Z,18.94
2024-04-11T15:55:55.694Z,18.94
2024-04-11T15:56:55.656Z,18.78
2024-04-11T15:58:55.626Z,18.94
2024-04-11T15:59:55.669Z,18.67
2024-04-11T16:00:55.634Z,18.67
2024-04-11T16:01:55.624Z,19.28
2024-04-11T16:02:55.765Z,19.28
2024-04-11T16:04:55.630Z,19
2024-04-11T16:05:55.706Z,18.83
2024-04-11T16:06:55.647Z,19.5
2024-04-11T16:07:55.625Z,19
2024-04-11T16:09:55.729Z,18.33
2024-04-11T16:11:55.699Z,18.83
2024-04-11T16:12:55.628Z,19.11
2024-04-11T16:13:55.631Z,19
2024-04-11T16:14:55.709Z,18.33
2024-04-11T16:16:55.632Z,18.67
2024-04-11T16:17:55.841Z,18.67
2024-04-11T16:20:55.643Z,18.5
2024-04-11T16:21:55.648Z,18
2024-04-11T16:22:55.654Z,18
2024-04-11T16:23:56.351Z,18.22
2024-04-11T16:24:55.659Z,18.33
2024-04-11T16:26:55.658Z,18.67
2024-04-11T16:27:55.668Z,18.33
2024-04-11T16:29:55.719Z,18.22
2024-04-11T16:30:55.645Z,18.5
2024-04-11T16:31:55.666Z,18
2024-04-11T16:33:55.677Z,18.67
2024-04-11T16:34:55.684Z,18.33
2024-04-11T16:35:55.650Z,18.61
2024-04-11T16:36:55.652Z,18.22
2024-04-11T16:38:55.720Z,18
2024-04-11T16:39:55.760Z,18